sensor_id;sensor_type;location;lat;lon;timestamp;pressure;altitude;pressure_sealevel;temperature;humidity
24230;BME280;12362;50.004;8.006;2023-07-31T00:00:58;100361.84;;;17.94;100.00
24230;BME280;12362;50.004;8.006;2023-07-31T00:03:23;100367.78;;;17.96;100.00
24230;BME280;12362;50.004;8.006;2023-07-31T00:05:49;100363.25;;;17.98;100.00
24230;BME280;12362;50.004;8.006;2023-07-31T00:08:14;100356.66;;;18.03;100.00
24230;BME280;12362;50.004;8.006;2023-07-31T00:10:40;100358.59;;;18.01;100.00
24230;BME280;12362;50.004;8.006;2023-07-31T00:13:05;100359.31;;;18.03;100.00
24230;BME280;12362;50.004;8.006;2023-07-31T00:15:31;100358.09;;;18.07;100.00
24230;BME280;12362;50.004;8.006;2023-07-31T00:17:56;100358.09;;;18.07;100.00
24230;BME280;12362;50.004;8.006;2023-07-31T00:20:22;100358.25;;;18.06;100.00
24230;BME280;12362;50.004;8.006;2023-07-31T00:22:48;100348.06;;;18.01;100.00
24230;BME280;12362;50.004;8.006;2023-07-31T00:25:13;100353.47;;;18.00;100.00
24230;BME280;12362;50.004;8.006;2023-07-31T00:27:39;100350.13;;;17.98;100.00
24230;BME280;12362;50.004;8.006;2023-07-31T00:30:05;100352.03;;;17.96;100.00
24230;BME280;12362;50.004;8.006;2023-07-31T00:32:32;100357.19;;;17.97;100.00
24230;BME280;12362;50.004;8.006;2023-07-31T00:34:59;100345.81;;;17.97;100.00
24230;BME280;12362;50.004;8.006;2023-07-31T00:37:24;100346.91;;;17.94;100.00
24230;BME280;12362;50.004;8.006;2023-07-31T00:39:49;100350.97;;;17.87;100.00
24230;BME280;12362;50.004;8.006;2023-07-31T00:42:15;100347.38;;;17.88;100.00
24230;BME280;12362;50.004;8.006;2023-07-31T00:44:40;100353.00;;;17.84;100.00
24230;BME280;12362;50.004;8.006;2023-07-31T00:47:06;100346.41;;;17.89;100.00
24230;BME280;12362;50.004;8.006;2023-07-31T00:49:34;100337.84;;;17.87;100.00
24230;BME280;12362;50.004;8.006;2023-07-31T00:52:00;100339.25;;;17.91;100.00
24230;BME280;12362;50.004;8.006;2023-07-31T00:54:28;100337.13;;;17.85;100.00
24230;BME280;12362;50.004;8.006;2023-07-31T00:56:54;100331.50;;;17.90;100.00
24230;BME280;12362;50.004;8.006;2023-07-31T00:59:21;100337.59;;;17.90;100.00
24230;BME280;12362;50.004;8.006;2023-07-31T01:01:46;100341.16;;;17.89;100.00
24230;BME280;12362;50.004;8.006;2023-07-31T01:04:12;100333.75;;;17.94;100.00
24230;BME280;12362;50.004;8.006;2023-07-31T01:09:53;100345.00;;;17.96;100.00
24230;BME280;12362;50.004;8.006;2023-07-31T01:12:23;100337.47;;;18.03;100.00
24230;BME280;12362;50.004;8.006;2023-07-31T01:15:09;100336.88;;;17.99;100.00
24230;BME280;12362;50.004;8.006;2023-07-31T01:17:42;100339.94;;;18.04;100.00
24230;BME280;12362;50.004;8.006;2023-07-31T01:20:18;100336.53;;;17.93;100.00
24230;BME280;12362;50.004;8.006;2023-07-31T01:28:02;100317.78;;;18.60;100.00
24230;BME280;12362;50.004;8.006;2023-07-31T01:30:33;100312.75;;;18.68;100.00
24230;BME280;12362;50.004;8.006;2023-07-31T01:33:02;100307.50;;;18.88;100.00
24230;BME280;12362;50.004;8.006;2023-07-31T01:35:33;100297.56;;;19.01;100.00
24230;BME280;12362;50.004;8.006;2023-07-31T01:37:59;100295.97;;;19.10;100.00
24230;BME280;12362;50.004;8.006;2023-07-31T01:40:24;100300.22;;;19.21;100.00
24230;BME280;12362;50.004;8.006;2023-07-31T01:42:50;100288.06;;;19.30;100.00
24230;BME280;12362;50.004;8.006;2023-07-31T01:45:15;100291.97;;;19.35;100.00
24230;BME280;12362;50.004;8.006;2023-07-31T01:47:41;100288.84;;;19.41;100.00
24230;BME280;12362;50.004;8.006;2023-07-31T01:50:09;100292.84;;;19.45;100.00
24230;BME280;12362;50.004;8.006;2023-07-31T01:52:35;100287.41;;;19.37;100.00
24230;BME280;12362;50.004;8.006;2023-07-31T01:55:01;100291.53;;;19.30;100.00
24230;BME280;12362;50.004;8.006;2023-07-31T01:57:26;100294.16;;;19.30;100.00
24230;BME280;12362;50.004;8.006;2023-07-31T01:59:51;100291.63;;;19.19;100.00
24230;BME280;12362;50.004;8.006;2023-07-31T02:02:19;100285.06;;;19.14;100.00
24230;BME280;12362;50.004;8.006;2023-07-31T02:04:45;100279.34;;;19.09;100.00
24230;BME280;12362;50.004;8.006;2023-07-31T02:07:10;100277.69;;;19.08;100.00
24230;BME280;12362;50.004;8.006;2023-07-31T02:09:35;100276.00;;;19.07;100.00
24230;BME280;12362;50.004;8.006;2023-07-31T02:12:01;100268.25;;;19.06;100.00
24230;BME280;12362;50.004;8.006;2023-07-31T02:14:27;100271.84;;;19.05;100.00
24230;BME280;12362;50.004;8.006;2023-07-31T02:16:52;100269.63;;;19.00;100.00
24230;BME280;12362;50.004;8.006;2023-07-31T02:19:18;100277.19;;;18.94;100.00
24230;BME280;12362;50.004;8.006;2023-07-31T02:21:43;100284.50;;;18.90;100.00
24230;BME280;12362;50.004;8.006;2023-07-31T02:24:09;100286.88;;;18.73;100.00
24230;BME280;12362;50.004;8.006;2023-07-31T02:26:35;100277.63;;;18.78;100.00
24230;BME280;12362;50.004;8.006;2023-07-31T02:29:00;100274.19;;;18.78;100.00
24230;BME280;12362;50.004;8.006;2023-07-31T02:31:26;100280.00;;;18.81;100.00
24230;BME280;12362;50.004;8.006;2023-07-31T02:33:51;100281.69;;;18.82;100.00
24230;BME280;12362;50.004;8.006;2023-07-31T02:36:17;100294.03;;;18.82;100.00
24230;BME280;12362;50.004;8.006;2023-07-31T02:38:42;100284.72;;;18.78;100.00
24230;BME280;12362;50.004;8.006;2023-07-31T02:41:07;100287.34;;;18.78;100.00
24230;BME280;12362;50.004;8.006;2023-07-31T02:43:33;100281.53;;;18.84;100.00
24230;BME280;12362;50.004;8.006;2023-07-31T02:45:59;100285.72;;;18.86;100.00
24230;BME280;12362;50.004;8.006;2023-07-31T02:48:25;100278.81;;;18.85;100.00
24230;BME280;12362;50.004;8.006;2023-07-31T02:50:51;100282.16;;;18.87;100.00
24230;BME280;12362;50.004;8.006;2023-07-31T02:53:16;100290.59;;;18.91;100.00
24230;BME280;12362;50.004;8.006;2023-07-31T02:55:42;100280.91;;;18.91;100.00
24230;BME280;12362;50.004;8.006;2023-07-31T02:58:08;100283.41;;;18.93;100.00
24230;BME280;12362;50.004;8.006;2023-07-31T03:00:33;100287.72;;;18.94;100.00
24230;BME280;12362;50.004;8.006;2023-07-31T03:02:59;100279.13;;;18.92;100.00
24230;BME280;12362;50.004;8.006;2023-07-31T03:05:24;100278.16;;;18.93;100.00
24230;BME280;12362;50.004;8.006;2023-07-31T03:07:50;100276.34;;;18.93;100.00
24230;BME280;12362;50.004;8.006;2023-07-31T03:10:15;100274.28;;;18.97;100.00
24230;BME280;12362;50.004;8.006;2023-07-31T03:12:41;100270.59;;;18.99;100.00
24230;BME280;12362;50.004;8.006;2023-07-31T03:15:07;100284.56;;;19.00;100.00
24230;BME280;12362;50.004;8.006;2023-07-31T03:17:32;100274.88;;;19.00;100.00
24230;BME280;12362;50.004;8.006;2023-07-31T03:19:58;100283.44;;;19.02;100.00
24230;BME280;12362;50.004;8.006;2023-07-31T03:22:23;100281.94;;;19.00;100.00
24230;BME280;12362;50.004;8.006;2023-07-31T03:24:50;100288.53;;;18.94;100.00
24230;BME280;12362;50.004;8.006;2023-07-31T03:27:15;100286.06;;;18.93;100.00
24230;BME280;12362;50.004;8.006;2023-07-31T03:29:40;100290.78;;;18.99;100.00
24230;BME280;12362;50.004;8.006;2023-07-31T03:32:06;100290.53;;;19.02;100.00
24230;BME280;12362;50.004;8.006;2023-07-31T03:34:32;100290.69;;;19.00;100.00
24230;BME280;12362;50.004;8.006;2023-07-31T03:36:58;100293.31;;;19.00;100.00
24230;BME280;12362;50.004;8.006;2023-07-31T03:39:23;100284.69;;;18.98;100.00
24230;BME280;12362;50.004;8.006;2023-07-31T03:41:49;100290.06;;;18.97;100.00
24230;BME280;12362;50.004;8.006;2023-07-31T03:44:16;100282.06;;;18.98;100.00
24230;BME280;12362;50.004;8.006;2023-07-31T03:46:42;100279.44;;;18.98;100.00
24230;BME280;12362;50.004;8.006;2023-07-31T03:49:08;100277.75;;;18.97;100.00
24230;BME280;12362;50.004;8.006;2023-07-31T03:51:33;100285.53;;;18.99;100.00
24230;BME280;12362;50.004;8.006;2023-07-31T03:54:00;100278.28;;;18.91;100.00
24230;BME280;12362;50.004;8.006;2023-07-31T03:56:26;100277.94;;;18.85;100.00
24230;BME280;12362;50.004;8.006;2023-07-31T03:58:51;100271.72;;;18.86;100.00
24230;BME280;12362;50.004;8.006;2023-07-31T04:01:17;100278.81;;;18.85;100.00
24230;BME280;12362;50.004;8.006;2023-07-31T04:03:43;100269.66;;;18.89;100.00
24230;BME280;12362;50.004;8.006;2023-07-31T04:06:08;100269.25;;;18.84;100.00
24230;BME280;12362;50.004;8.006;2023-07-31T04:08:34;100260.50;;;18.84;100.00
24230;BME280;12362;50.004;8.006;2023-07-31T04:10:59;100266.03;;;18.81;100.00
24230;BME280;12362;50.004;8.006;2023-07-31T04:13:24;100259.09;;;18.80;100.00
24230;BME280;12362;50.004;8.006;2023-07-31T04:15:52;100257.19;;;18.82;100.00
24230;BME280;12362;50.004;8.006;2023-07-31T04:18:19;100250.97;;;18.83;100.00
24230;BME280;12362;50.004;8.006;2023-07-31T04:20:45;100243.19;;;18.81;100.00
24230;BME280;12362;50.004;8.006;2023-07-31T04:23:11;100247.34;;;18.84;100.00
24230;BME280;12362;50.004;8.006;2023-07-31T04:25:36;100242.06;;;18.84;100.00
24230;BME280;12362;50.004;8.006;2023-07-31T04:28:02;100237.97;;;18.91;100.00
24230;BME280;12362;50.004;8.006;2023-07-31T04:30:27;100244.34;;;18.88;100.00
24230;BME280;12362;50.004;8.006;2023-07-31T04:32:52;100236.81;;;18.84;100.00
24230;BME280;12362;50.004;8.006;2023-07-31T04:35:18;100244.53;;;18.76;100.00
24230;BME280;12362;50.004;8.006;2023-07-31T04:37:43;100241.91;;;18.76;100.00
24230;BME280;12362;50.004;8.006;2023-07-31T04:40:11;100242.34;;;18.81;100.00
24230;BME280;12362;50.004;8.006;2023-07-31T04:42:37;100240.53;;;18.81;100.00
24230;BME280;12362;50.004;8.006;2023-07-31T04:45:02;100236.13;;;18.82;100.00
24230;BME280;12362;50.004;8.006;2023-07-31T04:47:28;100244.13;;;18.80;100.00
24230;BME280;12362;50.004;8.006;2023-07-31T04:49:53;100243.06;;;18.83;100.00
24230;BME280;12362;50.004;8.006;2023-07-31T04:52:19;100228.50;;;18.79;100.00
24230;BME280;12362;50.004;8.006;2023-07-31T04:54:44;100243.44;;;18.78;100.00
24230;BME280;12362;50.004;8.006;2023-07-31T04:57:09;100236.88;;;18.73;100.00
24230;BME280;12362;50.004;8.006;2023-07-31T04:59:35;100244.28;;;18.79;100.00
24230;BME280;12362;50.004;8.006;2023-07-31T05:02:00;100239.03;;;18.79;100.00
24230;BME280;12362;50.004;8.006;2023-07-31T05:04:26;100241.09;;;18.75;100.00
24230;BME280;12362;50.004;8.006;2023-07-31T05:06:51;100234.47;;;18.81;100.00
24230;BME280;12362;50.004;8.006;2023-07-31T05:09:17;100232.41;;;18.84;100.00
24230;BME280;12362;50.004;8.006;2023-07-31T05:11:42;100232.41;;;18.84;100.00
24230;BME280;12362;50.004;8.006;2023-07-31T05:14:08;100230.06;;;18.91;100.00
24230;BME280;12362;50.004;8.006;2023-07-31T05:16:34;100233.50;;;18.82;100.00
24230;BME280;12362;50.004;8.006;2023-07-31T05:18:59;100233.66;;;18.90;100.00
24230;BME280;12362;50.004;8.006;2023-07-31T05:21:25;100227.56;;;18.89;100.00
24230;BME280;12362;50.004;8.006;2023-07-31T05:23:50;100232.47;;;18.94;100.00
24230;BME280;12362;50.004;8.006;2023-07-31T05:26:16;100242.84;;;18.95;100.00
24230;BME280;12362;50.004;8.006;2023-07-31T05:28:41;100227.31;;;18.92;100.00
24230;BME280;12362;50.004;8.006;2023-07-31T05:31:06;100237.13;;;18.90;100.00
24230;BME280;12362;50.004;8.006;2023-07-31T05:33:32;100231.19;;;18.88;100.00
24230;BME280;12362;50.004;8.006;2023-07-31T05:35:58;100242.28;;;18.92;100.00
24230;BME280;12362;50.004;8.006;2023-07-31T05:38:23;100239.41;;;19.04;100.00
24230;BME280;12362;50.004;8.006;2023-07-31T05:40:49;100230.06;;;19.11;100.00
24230;BME280;12362;50.004;8.006;2023-07-31T05:43:15;100226.25;;;19.24;100.00
24230;BME280;12362;50.004;8.006;2023-07-31T05:45:42;100223.25;;;19.38;100.00
24230;BME280;12362;50.004;8.006;2023-07-31T05:48:08;100213.00;;;19.45;100.00
24230;BME280;12362;50.004;8.006;2023-07-31T05:50:33;100202.38;;;19.65;100.00
24230;BME280;12362;50.004;8.006;2023-07-31T05:52:58;100198.19;;;19.53;100.00
24230;BME280;12362;50.004;8.006;2023-07-31T05:55:25;100198.88;;;19.46;100.00
24230;BME280;12362;50.004;8.006;2023-07-31T05:57:53;100206.63;;;19.47;100.00
24230;BME280;12362;50.004;8.006;2023-07-31T06:00:18;100202.75;;;19.61;100.00
24230;BME280;12362;50.004;8.006;2023-07-31T06:02:44;100207.50;;;19.67;100.00
24230;BME280;12362;50.004;8.006;2023-07-31T06:05:09;100206.13;;;19.91;100.00
24230;BME280;12362;50.004;8.006;2023-07-31T06:07:35;100203.97;;;20.06;100.00
24230;BME280;12362;50.004;8.006;2023-07-31T06:10:01;100199.38;;;19.98;100.00
24230;BME280;12362;50.004;8.006;2023-07-31T06:12:33;100186.34;;;20.15;100.00
24230;BME280;12362;50.004;8.006;2023-07-31T06:14:59;100188.28;;;20.23;100.00
24230;BME280;12362;50.004;8.006;2023-07-31T06:17:24;100196.31;;;20.31;100.00
24230;BME280;12362;50.004;8.006;2023-07-31T06:19:51;100190.06;;;20.32;100.00
24230;BME280;12362;50.004;8.006;2023-07-31T06:22:16;100195.91;;;20.07;100.00
24230;BME280;12362;50.004;8.006;2023-07-31T06:24:41;100194.50;;;20.03;100.00
24230;BME280;12362;50.004;8.006;2023-07-31T06:27:07;100198.53;;;20.07;100.00
24230;BME280;12362;50.004;8.006;2023-07-31T06:29:32;100190.34;;;20.01;100.00
24230;BME280;12362;50.004;8.006;2023-07-31T06:31:58;100200.44;;;19.77;100.00
24230;BME280;12362;50.004;8.006;2023-07-31T06:34:24;100194.78;;;20.28;100.00
24230;BME280;12362;50.004;8.006;2023-07-31T06:36:50;100200.63;;;20.32;100.00
24230;BME280;12362;50.004;8.006;2023-07-31T06:39:15;100200.78;;;20.30;100.00
24230;BME280;12362;50.004;8.006;2023-07-31T06:41:41;100198.63;;;20.53;100.00
24230;BME280;12362;50.004;8.006;2023-07-31T06:44:10;100203.56;;;20.75;100.00
24230;BME280;12362;50.004;8.006;2023-07-31T06:46:35;100202.56;;;20.30;100.00
24230;BME280;12362;50.004;8.006;2023-07-31T06:49:01;100196.59;;;20.37;100.00
24230;BME280;12362;50.004;8.006;2023-07-31T06:51:26;100186.88;;;20.93;100.00
24230;BME280;12362;50.004;8.006;2023-07-31T06:53:51;100167.84;;;21.88;100.00
24230;BME280;12362;50.004;8.006;2023-07-31T06:56:17;100165.81;;;21.99;100.00
24230;BME280;12362;50.004;8.006;2023-07-31T06:58:43;100158.16;;;22.56;100.00
24230;BME280;12362;50.004;8.006;2023-07-31T07:01:08;100161.34;;;21.99;100.00
24230;BME280;12362;50.004;8.006;2023-07-31T07:03:33;100168.13;;;21.67;100.00
24230;BME280;12362;50.004;8.006;2023-07-31T07:05:59;100179.63;;;21.31;100.00
24230;BME280;12362;50.004;8.006;2023-07-31T07:08:24;100168.81;;;21.69;100.00
24230;BME280;12362;50.004;8.006;2023-07-31T07:10:50;100158.47;;;22.10;100.00
24230;BME280;12362;50.004;8.006;2023-07-31T07:13:16;100156.19;;;22.15;100.00
24230;BME280;12362;50.004;8.006;2023-07-31T07:15:47;100151.34;;;21.41;100.00
24230;BME280;12362;50.004;8.006;2023-07-31T07:18:12;100155.19;;;20.93;100.00
24230;BME280;12362;50.004;8.006;2023-07-31T07:20:39;100154.13;;;20.86;100.00
24230;BME280;12362;50.004;8.006;2023-07-31T07:23:04;100142.88;;;20.84;100.00
24230;BME280;12362;50.004;8.006;2023-07-31T07:25:30;100138.19;;;21.05;100.00
24230;BME280;12362;50.004;8.006;2023-07-31T07:27:55;100134.84;;;21.30;100.00
24230;BME280;12362;50.004;8.006;2023-07-31T07:30:21;100141.03;;;21.21;100.00
24230;BME280;12362;50.004;8.006;2023-07-31T07:32:46;100138.72;;;20.72;100.00
24230;BME280;12362;50.004;8.006;2023-07-31T07:35:12;100141.78;;;20.77;100.00
24230;BME280;12362;50.004;8.006;2023-07-31T07:37:37;100141.50;;;20.80;100.00
24230;BME280;12362;50.004;8.006;2023-07-31T07:40:03;100138.91;;;20.61;100.00
24230;BME280;12362;50.004;8.006;2023-07-31T07:42:29;100148.03;;;20.67;100.00
24230;BME280;12362;50.004;8.006;2023-07-31T07:44:54;100141.75;;;20.87;100.00
24230;BME280;12362;50.004;8.006;2023-07-31T07:47:19;100142.41;;;20.98;100.00
24230;BME280;12362;50.004;8.006;2023-07-31T07:49:45;100145.72;;;21.00;100.00
24230;BME280;12362;50.004;8.006;2023-07-31T07:52:10;100141.63;;;20.88;100.00
24230;BME280;12362;50.004;8.006;2023-07-31T07:54:35;100133.53;;;20.90;100.00
24230;BME280;12362;50.004;8.006;2023-07-31T07:57:01;100127.38;;;21.25;100.00
24230;BME280;12362;50.004;8.006;2023-07-31T07:59:26;100129.28;;;21.33;100.00
24230;BME280;12362;50.004;8.006;2023-07-31T08:01:52;100118.03;;;21.48;100.00
24230;BME280;12362;50.004;8.006;2023-07-31T08:04:17;100115.56;;;21.47;100.00
24230;BME280;12362;50.004;8.006;2023-07-31T08:06:43;100110.53;;;21.71;100.00
24230;BME280;12362;50.004;8.006;2023-07-31T08:09:08;100101.91;;;21.69;100.00
24230;BME280;12362;50.004;8.006;2023-07-31T08:11:34;100103.28;;;21.90;100.00
24230;BME280;12362;50.004;8.006;2023-07-31T08:13:59;100104.56;;;21.69;100.00
24230;BME280;12362;50.004;8.006;2023-07-31T08:16:25;100106.97;;;21.62;100.00
24230;BME280;12362;50.004;8.006;2023-07-31T08:18:50;100102.69;;;21.52;100.00
24230;BME280;12362;50.004;8.006;2023-07-31T08:21:16;100101.53;;;21.64;100.00
24230;BME280;12362;50.004;8.006;2023-07-31T08:23:41;100095.19;;;21.57;100.00
24230;BME280;12362;50.004;8.006;2023-07-31T08:26:07;100088.31;;;21.64;100.00
24230;BME280;12362;50.004;8.006;2023-07-31T08:28:32;100086.25;;;21.93;100.00
24230;BME280;12362;50.004;8.006;2023-07-31T08:30:58;100091.03;;;21.72;100.00
24230;BME280;12362;50.004;8.006;2023-07-31T08:33:23;100099.84;;;21.98;100.00
24230;BME280;12362;50.004;8.006;2023-07-31T08:35:49;100098.97;;;21.89;100.00
24230;BME280;12362;50.004;8.006;2023-07-31T08:38:14;100100.94;;;21.87;100.00
24230;BME280;12362;50.004;8.006;2023-07-31T08:40:40;100105.59;;;21.76;100.00
24230;BME280;12362;50.004;8.006;2023-07-31T08:43:06;100095.41;;;22.23;100.00
24230;BME280;12362;50.004;8.006;2023-07-31T08:45:32;100091.03;;;22.32;100.00
24230;BME280;12362;50.004;8.006;2023-07-31T08:47:59;100084.59;;;22.34;100.00
24230;BME280;12362;50.004;8.006;2023-07-31T08:50:24;100076.94;;;22.31;100.00
24230;BME280;12362;50.004;8.006;2023-07-31T08:52:51;100068.56;;;22.36;100.00
24230;BME280;12362;50.004;8.006;2023-07-31T08:55:16;100069.19;;;22.55;100.00
24230;BME280;12362;50.004;8.006;2023-07-31T08:57:42;100078.41;;;22.51;100.00
24230;BME280;12362;50.004;8.006;2023-07-31T09:00:10;100063.66;;;23.31;100.00
24230;BME280;12362;50.004;8.006;2023-07-31T09:02:48;100071.69;;;23.06;100.00
24230;BME280;12362;50.004;8.006;2023-07-31T09:05:17;100067.03;;;23.00;100.00
24230;BME280;12362;50.004;8.006;2023-07-31T09:07:45;100074.78;;;22.52;100.00
24230;BME280;12362;50.004;8.006;2023-07-31T09:10:12;100069.47;;;22.52;100.00
24230;BME280;12362;50.004;8.006;2023-07-31T09:12:38;100067.59;;;22.37;100.00
24230;BME280;12362;50.004;8.006;2023-07-31T09:15:04;100068.44;;;22.45;100.00
24230;BME280;12362;50.004;8.006;2023-07-31T09:17:34;100077.63;;;22.59;100.00
24230;BME280;12362;50.004;8.006;2023-07-31T09:22:39;100074.19;;;22.41;100.00
24230;BME280;12362;50.004;8.006;2023-07-31T09:25:22;100062.59;;;22.34;100.00
24230;BME280;12362;50.004;8.006;2023-07-31T09:27:50;100064.47;;;22.41;100.00
24230;BME280;12362;50.004;8.006;2023-07-31T09:30:20;100061.34;;;22.46;100.00
24230;BME280;12362;50.004;8.006;2023-07-31T09:32:46;100059.47;;;22.38;100.00
24230;BME280;12362;50.004;8.006;2023-07-31T09:35:19;100047.13;;;22.47;100.00
24230;BME280;12362;50.004;8.006;2023-07-31T09:37:53;100030.97;;;22.58;100.00
24230;BME280;12362;50.004;8.006;2023-07-31T09:40:30;100026.66;;;23.06;100.00
24230;BME280;12362;50.004;8.006;2023-07-31T09:43:00;100024.88;;;23.06;100.00
24230;BME280;12362;50.004;8.006;2023-07-31T09:45:26;100025.28;;;22.94;100.00
24230;BME280;12362;50.004;8.006;2023-07-31T09:47:52;100030.25;;;22.89;100.00
24230;BME280;12362;50.004;8.006;2023-07-31T09:50:19;100020.84;;;22.94;100.00
24230;BME280;12362;50.004;8.006;2023-07-31T09:52:45;100021.06;;;23.09;100.00
24230;BME280;12362;50.004;8.006;2023-07-31T09:55:10;100022.88;;;23.16;100.00
24230;BME280;12362;50.004;8.006;2023-07-31T09:57:47;100027.09;;;22.86;100.00
24230;BME280;12362;50.004;8.006;2023-07-31T10:00:14;100019.56;;;23.06;100.00
24230;BME280;12362;50.004;8.006;2023-07-31T10:02:41;100015.75;;;23.09;100.00
24230;BME280;12362;50.004;8.006;2023-07-31T10:05:07;100011.31;;;23.33;100.00
24230;BME280;12362;50.004;8.006;2023-07-31T10:07:37;100012.44;;;23.07;100.00
24230;BME280;12362;50.004;8.006;2023-07-31T10:10:07;100010.41;;;23.01;100.00
24230;BME280;12362;50.004;8.006;2023-07-31T10:12:33;100004.09;;;22.94;100.00
24230;BME280;12362;50.004;8.006;2023-07-31T10:15:00;100011.97;;;23.27;100.00
24230;BME280;12362;50.004;8.006;2023-07-31T10:17:26;100020.72;;;23.12;100.00
24230;BME280;12362;50.004;8.006;2023-07-31T10:19:53;100025.91;;;22.80;100.00
24230;BME280;12362;50.004;8.006;2023-07-31T10:22:22;100021.34;;;22.98;100.00
24230;BME280;12362;50.004;8.006;2023-07-31T10:24:48;100013.78;;;23.11;100.00
24230;BME280;12362;50.004;8.006;2023-07-31T10:27:15;100015.47;;;22.71;100.00
24230;BME280;12362;50.004;8.006;2023-07-31T10:29:42;100011.66;;;22.81;100.00
24230;BME280;12362;50.004;8.006;2023-07-31T10:32:09;100012.06;;;23.02;100.00
24230;BME280;12362;50.004;8.006;2023-07-31T10:34:39;100013.78;;;23.19;100.00
24230;BME280;12362;50.004;8.006;2023-07-31T10:37:24;100004.75;;;22.96;100.00
24230;BME280;12362;50.004;8.006;2023-07-31T10:40:06;99997.31;;;22.92;100.00
24230;BME280;12362;50.004;8.006;2023-07-31T10:45:03;99999.78;;;22.85;100.00
24230;BME280;12362;50.004;8.006;2023-07-31T10:47:29;99995.72;;;23.14;100.00
24230;BME280;12362;50.004;8.006;2023-07-31T10:50:11;99987.47;;;23.41;100.00
24230;BME280;12362;50.004;8.006;2023-07-31T10:52:37;99983.47;;;23.37;100.00
24230;BME280;12362;50.004;8.006;2023-07-31T10:57:47;99974.53;;;23.38;100.00
24230;BME280;12362;50.004;8.006;2023-07-31T11:00:22;99968.88;;;23.57;100.00
24230;BME280;12362;50.004;8.006;2023-07-31T11:03:00;99959.63;;;23.61;100.00
24230;BME280;12362;50.004;8.006;2023-07-31T11:08:19;99961.44;;;23.45;100.00
24230;BME280;12362;50.004;8.006;2023-07-31T11:10:46;99965.75;;;23.14;100.00
24230;BME280;12362;50.004;8.006;2023-07-31T11:13:13;99970.00;;;22.99;100.00
24230;BME280;12362;50.004;8.006;2023-07-31T11:15:39;99974.81;;;23.03;100.00
24230;BME280;12362;50.004;8.006;2023-07-31T11:18:05;99984.88;;;22.92;100.00
24230;BME280;12362;50.004;8.006;2023-07-31T11:20:34;99968.84;;;22.86;100.00
24230;BME280;12362;50.004;8.006;2023-07-31T11:23:05;99974.00;;;23.03;100.00
24230;BME280;12362;50.004;8.006;2023-07-31T11:25:32;99971.53;;;23.09;100.00
24230;BME280;12362;50.004;8.006;2023-07-31T11:28:05;99977.84;;;23.24;100.00
24230;BME280;12362;50.004;8.006;2023-07-31T11:30:31;99963.28;;;23.20;100.00
24230;BME280;12362;50.004;8.006;2023-07-31T11:32:57;99971.34;;;23.03;100.00
24230;BME280;12362;50.004;8.006;2023-07-31T11:35:23;99967.03;;;23.02;100.00
24230;BME280;12362;50.004;8.006;2023-07-31T11:37:48;99957.41;;;22.93;100.00
24230;BME280;12362;50.004;8.006;2023-07-31T11:40:14;99960.75;;;23.03;100.00
24230;BME280;12362;50.004;8.006;2023-07-31T11:42:40;99953.63;;;22.95;100.00
24230;BME280;12362;50.004;8.006;2023-07-31T11:45:07;99958.91;;;23.03;100.00
24230;BME280;12362;50.004;8.006;2023-07-31T11:47:33;99960.47;;;23.14;100.00
24230;BME280;12362;50.004;8.006;2023-07-31T11:50:03;99960.94;;;23.09;100.00
24230;BME280;12362;50.004;8.006;2023-07-31T11:52:40;99958.41;;;22.92;100.00
24230;BME280;12362;50.004;8.006;2023-07-31T11:55:08;99962.06;;;22.91;100.00
24230;BME280;12362;50.004;8.006;2023-07-31T11:57:39;99960.38;;;22.82;100.00
24230;BME280;12362;50.004;8.006;2023-07-31T12:00:07;99969.97;;;22.83;100.00
24230;BME280;12362;50.004;8.006;2023-07-31T12:02:35;99952.94;;;22.86;100.00
24230;BME280;12362;50.004;8.006;2023-07-31T12:05:01;99952.47;;;22.90;100.00
24230;BME280;12362;50.004;8.006;2023-07-31T12:07:26;99941.69;;;22.99;100.00
24230;BME280;12362;50.004;8.006;2023-07-31T12:09:55;99941.56;;;23.09;100.00
24230;BME280;12362;50.004;8.006;2023-07-31T12:12:21;99936.28;;;23.09;100.00
24230;BME280;12362;50.004;8.006;2023-07-31T12:14:47;99929.97;;;23.18;100.00
24230;BME280;12362;50.004;8.006;2023-07-31T12:17:14;99932.94;;;23.07;100.00
24230;BME280;12362;50.004;8.006;2023-07-31T12:19:43;99923.38;;;23.14;100.00
24230;BME280;12362;50.004;8.006;2023-07-31T12:22:12;99920.38;;;23.25;100.00
24230;BME280;12362;50.004;8.006;2023-07-31T12:24:39;99908.44;;;23.45;100.00
24230;BME280;12362;50.004;8.006;2023-07-31T12:27:12;99903.75;;;23.71;96.00
24230;BME280;12362;50.004;8.006;2023-07-31T12:29:39;99910.69;;;23.95;96.91
24230;BME280;12362;50.004;8.006;2023-07-31T12:32:22;99905.56;;;24.24;95.68
24230;BME280;12362;50.004;8.006;2023-07-31T12:34:48;99903.06;;;24.31;96.75
24230;BME280;12362;50.004;8.006;2023-07-31T12:37:13;99904.31;;;24.43;95.54
24230;BME280;12362;50.004;8.006;2023-07-31T12:39:39;99902.16;;;24.54;93.58
24230;BME280;12362;50.004;8.006;2023-07-31T12:42:05;99900.06;;;24.34;93.36
24230;BME280;12362;50.004;8.006;2023-07-31T12:44:30;99904.91;;;24.22;95.88
24230;BME280;12362;50.004;8.006;2023-07-31T12:46:56;99897.47;;;24.26;96.61
24230;BME280;12362;50.004;8.006;2023-07-31T12:49:21;99902.16;;;24.16;97.91
24230;BME280;12362;50.004;8.006;2023-07-31T12:51:47;99900.41;;;23.92;96.65
24230;BME280;12362;50.004;8.006;2023-07-31T12:54:12;99905.38;;;23.88;98.28
24230;BME280;12362;50.004;8.006;2023-07-31T12:56:38;99901.25;;;23.85;100.00
24230;BME280;12362;50.004;8.006;2023-07-31T12:59:03;99894.31;;;23.60;100.00